sensor_id;sensor_type;location;lat;lon;timestamp;pressure;altitude;pressure_sealevel;temperature;humidity
29985;BME280;17387;42.690;23.328;2022-09-09T00:01:33;47492.16;;;-144.02;74.69
29985;BME280;17387;42.690;23.328;2022-09-09T00:06:44;47532.78;;;-144.02;74.97
29985;BME280;17387;42.690;23.328;2022-09-09T00:09:14;47528.72;;;-144.02;75.47
29985;BME280;17387;42.690;23.328;2022-09-09T00:11:48;47514.50;;;-144.02;76.29
29985;BME280;17387;42.690;23.328;2022-09-09T00:16:45;47549.03;;;-144.02;75.76
29985;BME280;17387;42.690;23.328;2022-09-09T00:19:20;47547.00;;;-144.02;76.16
29985;BME280;17387;42.690;23.328;2022-09-09T00:22:20;47530.75;;;-144.02;76.65
29985;BME280;17387;42.690;23.328;2022-09-09T00:24:52;47506.38;;;-144.02;77.10
29985;BME280;17387;42.690;23.328;2022-09-09T00:30:12;47532.78;;;-144.02;76.44
29985;BME280;17387;42.690;23.328;2022-09-09T00:32:38;47506.38;;;-144.02;76.66
29985;BME280;17387;42.690;23.328;2022-09-09T00:35:31;47502.31;;;-144.02;77.19
29985;BME280;17387;42.690;23.328;2022-09-09T00:38:01;47516.53;;;-144.02;78.31
29985;BME280;17387;42.690;23.328;2022-09-09T00:46:21;47494.19;;;-144.02;77.86
29985;BME280;17387;42.690;23.328;2022-09-09T00:57:33;47522.63;;;-144.02;79.47
29985;BME280;17387;42.690;23.328;2022-09-09T01:02:29;47492.16;;;-144.02;79.86
29985;BME280;17387;42.690;23.328;2022-09-09T01:05:03;47559.19;;;-144.02;80.23
29985;BME280;17387;42.690;23.328;2022-09-09T01:07:30;47510.44;;;-144.02;81.03
29985;BME280;17387;42.690;23.328;2022-09-09T01:09:59;47532.78;;;-144.02;81.70
29985;BME280;17387;42.690;23.328;2022-09-09T01:12:28;47510.44;;;-144.02;81.30
29985;BME280;17387;42.690;23.328;2022-09-09T01:15:08;47528.72;;;-144.02;81.36
29985;BME280;17387;42.690;23.328;2022-09-09T01:17:56;47510.44;;;-144.02;81.91
29985;BME280;17387;42.690;23.328;2022-09-09T01:20:30;47522.63;;;-144.02;82.12
29985;BME280;17387;42.690;23.328;2022-09-09T01:26:14;47547.00;;;-144.02;82.65
29985;BME280;17387;42.690;23.328;2022-09-09T01:28:47;47518.56;;;-144.02;82.61
29985;BME280;17387;42.690;23.328;2022-09-09T01:31:23;47534.81;;;-144.02;82.26
29985;BME280;17387;42.690;23.328;2022-09-09T01:33:52;47526.69;;;-144.02;82.38
29985;BME280;17387;42.690;23.328;2022-09-09T01:36:26;47526.69;;;-144.02;82.31
29985;BME280;17387;42.690;23.328;2022-09-09T01:38:55;47526.69;;;-144.02;82.37
29985;BME280;17387;42.690;23.328;2022-09-09T01:41:21;47563.22;;;-144.02;81.70
29985;BME280;17387;42.690;23.328;2022-09-09T01:43:47;47514.50;;;-144.02;81.86
29985;BME280;17387;42.690;23.328;2022-09-09T01:46:13;47520.59;;;-144.02;82.43
29985;BME280;17387;42.690;23.328;2022-09-09T01:48:39;47510.44;;;-144.02;81.73
29985;BME280;17387;42.690;23.328;2022-09-09T01:51:07;47516.53;;;-144.02;81.88
29985;BME280;17387;42.690;23.328;2022-09-09T01:53:32;47536.84;;;-144.02;81.02
29985;BME280;17387;42.690;23.328;2022-09-09T01:56:18;47518.56;;;-144.02;80.73
29985;BME280;17387;42.690;23.328;2022-09-09T02:04:02;47526.69;;;-144.02;78.61
29985;BME280;17387;42.690;23.328;2022-09-09T02:06:34;47555.13;;;-144.02;78.97
29985;BME280;17387;42.690;23.328;2022-09-09T02:09:04;47549.03;;;-144.02;78.80
29985;BME280;17387;42.690;23.328;2022-09-09T02:11:31;47514.50;;;-144.02;79.15
29985;BME280;17387;42.690;23.328;2022-09-09T02:14:05;47522.63;;;-144.02;79.84
29985;BME280;17387;42.690;23.328;2022-09-09T02:16:38;47508.41;;;-144.02;80.95
29985;BME280;17387;42.690;23.328;2022-09-09T02:19:35;47551.06;;;-144.02;81.32
29985;BME280;17387;42.690;23.328;2022-09-09T02:22:02;47559.19;;;-144.02;81.30
29985;BME280;17387;42.690;23.328;2022-09-09T02:24:31;47616.03;;;-144.02;81.38
29985;BME280;17387;42.690;23.328;2022-09-09T02:27:01;47506.38;;;-144.02;82.31
29985;BME280;17387;42.690;23.328;2022-09-09T02:29:33;47522.63;;;-144.02;82.25
29985;BME280;17387;42.690;23.328;2022-09-09T02:32:02;47536.84;;;-144.02;82.69
29985;BME280;17387;42.690;23.328;2022-09-09T02:34:31;47577.44;;;-144.02;82.88
29985;BME280;17387;42.690;23.328;2022-09-09T02:36:59;47516.53;;;-144.02;83.56
29985;BME280;17387;42.690;23.328;2022-09-09T02:39:26;47502.31;;;-144.02;82.86
29985;BME280;17387;42.690;23.328;2022-09-09T02:41:51;47532.78;;;-144.02;81.41
29985;BME280;17387;42.690;23.328;2022-09-09T02:44:18;47571.38;;;-144.02;80.56
29985;BME280;17387;42.690;23.328;2022-09-09T02:49:31;47538.88;;;-144.02;79.68
29985;BME280;17387;42.690;23.328;2022-09-09T02:52:05;47538.88;;;-144.02;79.22
29985;BME280;17387;42.690;23.328;2022-09-09T02:54:34;47542.94;;;-144.02;79.22
29985;BME280;17387;42.690;23.328;2022-09-09T02:57:10;47514.50;;;-144.02;79.13
29985;BME280;17387;42.690;23.328;2022-09-09T02:59:36;47551.06;;;-144.02;78.92
29985;BME280;17387;42.690;23.328;2022-09-09T03:02:02;47504.34;;;-144.02;79.20
29985;BME280;17387;42.690;23.328;2022-09-09T03:04:28;47563.22;;;-144.02;79.31
29985;BME280;17387;42.690;23.328;2022-09-09T03:06:55;47534.81;;;-144.02;80.34
29985;BME280;17387;42.690;23.328;2022-09-09T03:09:20;47549.03;;;-144.02;80.52
29985;BME280;17387;42.690;23.328;2022-09-09T03:11:46;47514.50;;;-144.02;80.71
29985;BME280;17387;42.690;23.328;2022-09-09T03:14:12;47549.03;;;-144.02;80.34
29985;BME280;17387;42.690;23.328;2022-09-09T03:16:37;47532.78;;;-144.02;79.37
29985;BME280;17387;42.690;23.328;2022-09-09T03:19:03;47530.75;;;-144.02;80.07
29985;BME280;17387;42.690;23.328;2022-09-09T03:21:28;47526.69;;;-144.02;79.57
29985;BME280;17387;42.690;23.328;2022-09-09T03:23:54;47542.94;;;-144.02;79.39
29985;BME280;17387;42.690;23.328;2022-09-09T03:26:19;47524.66;;;-144.02;79.31
29985;BME280;17387;42.690;23.328;2022-09-09T03:28:45;47526.69;;;-144.02;79.77
29985;BME280;17387;42.690;23.328;2022-09-09T03:31:11;47555.13;;;-144.02;80.37
29985;BME280;17387;42.690;23.328;2022-09-09T03:33:37;47551.06;;;-144.02;80.20
29985;BME280;17387;42.690;23.328;2022-09-09T03:36:04;47557.16;;;-144.02;80.76
29985;BME280;17387;42.690;23.328;2022-09-09T03:38:30;47526.69;;;-144.02;80.41
29985;BME280;17387;42.690;23.328;2022-09-09T03:40:56;47528.72;;;-144.02;81.03
29985;BME280;17387;42.690;23.328;2022-09-09T03:43:27;47549.03;;;-144.02;82.28
29985;BME280;17387;42.690;23.328;2022-09-09T03:45:53;47538.88;;;-144.02;82.92
29985;BME280;17387;42.690;23.328;2022-09-09T03:48:22;47506.38;;;-144.02;83.22
29985;BME280;17387;42.690;23.328;2022-09-09T03:50:50;47524.66;;;-144.02;83.74
29985;BME280;17387;42.690;23.328;2022-09-09T03:53:17;47597.75;;;-144.02;84.62
29985;BME280;17387;42.690;23.328;2022-09-09T03:55:49;47553.09;;;-144.02;85.16
29985;BME280;17387;42.690;23.328;2022-09-09T03:58:16;47569.31;;;-144.02;84.77
29985;BME280;17387;42.690;23.328;2022-09-09T04:00:55;47538.88;;;-144.02;84.91
29985;BME280;17387;42.690;23.328;2022-09-09T04:03:22;47542.94;;;-144.02;84.68
29985;BME280;17387;42.690;23.328;2022-09-09T04:05:50;47555.13;;;-144.02;84.72
29985;BME280;17387;42.690;23.328;2022-09-09T04:08:16;47551.06;;;-144.02;84.64
29985;BME280;17387;42.690;23.328;2022-09-09T04:10:41;47557.16;;;-144.02;84.74
29985;BME280;17387;42.690;23.328;2022-09-09T04:13:07;47559.19;;;-144.02;84.48
29985;BME280;17387;42.690;23.328;2022-09-09T04:15:32;47518.56;;;-144.02;84.55
29985;BME280;17387;42.690;23.328;2022-09-09T04:18:00;47524.66;;;-144.02;84.42
29985;BME280;17387;42.690;23.328;2022-09-09T04:20:26;47506.38;;;-144.02;84.08
29985;BME280;17387;42.690;23.328;2022-09-09T04:22:51;47516.53;;;-144.02;83.83
29985;BME280;17387;42.690;23.328;2022-09-09T04:25:17;47561.22;;;-144.02;83.59
29985;BME280;17387;42.690;23.328;2022-09-09T04:27:42;47530.75;;;-144.02;83.37
29985;BME280;17387;42.690;23.328;2022-09-09T04:30:08;47542.94;;;-144.02;82.96
29985;BME280;17387;42.690;23.328;2022-09-09T04:32:34;47540.91;;;-144.02;83.63
29985;BME280;17387;42.690;23.328;2022-09-09T04:35:00;47542.94;;;-144.02;83.68
29985;BME280;17387;42.690;23.328;2022-09-09T04:37:26;47512.47;;;-144.02;82.92
29985;BME280;17387;42.690;23.328;2022-09-09T04:39:51;47518.56;;;-144.02;82.55
29985;BME280;17387;42.690;23.328;2022-09-09T04:42:17;47547.00;;;-144.02;81.93
29985;BME280;17387;42.690;23.328;2022-09-09T04:44:44;47551.06;;;-144.02;81.31
29985;BME280;17387;42.690;23.328;2022-09-09T04:47:10;47508.41;;;-144.02;81.15
29985;BME280;17387;42.690;23.328;2022-09-09T04:49:35;47488.09;;;-144.02;80.59
29985;BME280;17387;42.690;23.328;2022-09-09T04:52:03;47565.28;;;-144.02;80.22
29985;BME280;17387;42.690;23.328;2022-09-09T04:54:29;47516.53;;;-144.02;80.03
29985;BME280;17387;42.690;23.328;2022-09-09T04:56:55;47551.06;;;-144.02;79.60
29985;BME280;17387;42.690;23.328;2022-09-09T04:59:21;47565.28;;;-144.02;79.37
29985;BME280;17387;42.690;23.328;2022-09-09T05:01:47;47512.47;;;-144.02;79.41
29985;BME280;17387;42.690;23.328;2022-09-09T05:04:13;47540.91;;;-144.02;77.96
29985;BME280;17387;42.690;23.328;2022-09-09T05:06:40;47536.84;;;-144.02;76.22
29985;BME280;17387;42.690;23.328;2022-09-09T05:09:06;47526.69;;;-144.02;75.83
29985;BME280;17387;42.690;23.328;2022-09-09T05:11:32;47520.59;;;-144.02;76.24
29985;BME280;17387;42.690;23.328;2022-09-09T05:13:59;47526.69;;;-144.02;75.83
29985;BME280;17387;42.690;23.328;2022-09-09T05:16:25;47579.47;;;-144.02;75.81
29985;BME280;17387;42.690;23.328;2022-09-09T05:18:51;47520.59;;;-144.02;75.63
29985;BME280;17387;42.690;23.328;2022-09-09T05:21:17;47542.94;;;-144.02;75.84
29985;BME280;17387;42.690;23.328;2022-09-09T05:23:45;47502.31;;;-144.02;75.38
29985;BME280;17387;42.690;23.328;2022-09-09T05:26:15;47510.44;;;-144.02;74.82
29985;BME280;17387;42.690;23.328;2022-09-09T05:28:41;47510.44;;;-144.02;74.61
29985;BME280;17387;42.690;23.328;2022-09-09T05:31:09;47512.47;;;-144.02;73.67
29985;BME280;17387;42.690;23.328;2022-09-09T05:33:36;47532.78;;;-144.02;73.69
29985;BME280;17387;42.690;23.328;2022-09-09T05:36:10;47542.94;;;-144.02;72.94
29985;BME280;17387;42.690;23.328;2022-09-09T05:38:38;47488.09;;;-144.02;73.13
29985;BME280;17387;42.690;23.328;2022-09-09T05:41:04;47502.31;;;-144.02;72.44
29985;BME280;17387;42.690;23.328;2022-09-09T05:43:30;47510.44;;;-144.02;71.71
29985;BME280;17387;42.690;23.328;2022-09-09T05:46:17;47473.88;;;-144.02;71.62
29985;BME280;17387;42.690;23.328;2022-09-09T05:48:45;47494.19;;;-144.02;71.81
29985;BME280;17387;42.690;23.328;2022-09-09T05:51:18;47532.78;;;-144.02;71.11
29985;BME280;17387;42.690;23.328;2022-09-09T05:53:45;47536.84;;;-144.02;69.83
29985;BME280;17387;42.690;23.328;2022-09-09T05:56:12;47477.94;;;-144.02;69.46
29985;BME280;17387;42.690;23.328;2022-09-09T05:58:41;47461.69;;;-144.02;67.96
29985;BME280;17387;42.690;23.328;2022-09-09T06:03:41;47479.97;;;-144.02;67.24
29985;BME280;17387;42.690;23.328;2022-09-09T06:06:12;47461.69;;;-144.02;66.66
29985;BME280;17387;42.690;23.328;2022-09-09T06:08:39;47465.75;;;-144.02;66.16
29985;BME280;17387;42.690;23.328;2022-09-09T06:11:10;47467.78;;;-144.02;66.22
29985;BME280;17387;42.690;23.328;2022-09-09T06:13:36;47488.09;;;-144.02;65.93
29985;BME280;17387;42.690;23.328;2022-09-09T06:16:11;47461.69;;;-144.02;65.62
29985;BME280;17387;42.690;23.328;2022-09-09T06:18:38;47496.22;;;-144.02;65.29
29985;BME280;17387;42.690;23.328;2022-09-09T06:21:05;47528.72;;;-144.02;64.41
29985;BME280;17387;42.690;23.328;2022-09-09T06:23:35;47506.38;;;-144.02;64.06
29985;BME280;17387;42.690;23.328;2022-09-09T06:26:05;47512.47;;;-144.02;63.83
29985;BME280;17387;42.690;23.328;2022-09-09T06:28:32;47484.03;;;-144.02;64.06
29985;BME280;17387;42.690;23.328;2022-09-09T06:31:02;47496.22;;;-144.02;63.45
29985;BME280;17387;42.690;23.328;2022-09-09T06:33:37;47502.31;;;-144.02;62.24
29985;BME280;17387;42.690;23.328;2022-09-09T06:36:05;47455.59;;;-144.02;61.43
29985;BME280;17387;42.690;23.328;2022-09-09T06:38:31;47486.06;;;-144.02;60.55
29985;BME280;17387;42.690;23.328;2022-09-09T06:40:58;47453.56;;;-144.02;60.70
29985;BME280;17387;42.690;23.328;2022-09-09T06:43:25;47516.53;;;-144.02;61.25
29985;BME280;17387;42.690;23.328;2022-09-09T06:45:58;47453.56;;;-144.02;60.59
29985;BME280;17387;42.690;23.328;2022-09-09T06:48:24;47461.69;;;-144.02;59.97
29985;BME280;17387;42.690;23.328;2022-09-09T06:50:59;47473.88;;;-144.02;59.92
29985;BME280;17387;42.690;23.328;2022-09-09T06:53:25;47473.88;;;-144.02;59.24
29985;BME280;17387;42.690;23.328;2022-09-09T06:55:51;47441.38;;;-144.02;59.00
29985;BME280;17387;42.690;23.328;2022-09-09T06:58:16;47461.69;;;-144.02;57.48
29985;BME280;17387;42.690;23.328;2022-09-09T07:00:42;47433.25;;;-144.02;57.43
29985;BME280;17387;42.690;23.328;2022-09-09T07:03:07;47463.72;;;-144.02;57.18
29985;BME280;17387;42.690;23.328;2022-09-09T07:05:34;47425.13;;;-144.02;57.56
29985;BME280;17387;42.690;23.328;2022-09-09T07:08:00;47473.88;;;-144.02;56.65
29985;BME280;17387;42.690;23.328;2022-09-09T07:10:25;47443.41;;;-144.02;56.61
29985;BME280;17387;42.690;23.328;2022-09-09T07:12:51;47429.19;;;-144.02;56.12
29985;BME280;17387;42.690;23.328;2022-09-09T07:15:20;47453.56;;;-144.02;55.11
29985;BME280;17387;42.690;23.328;2022-09-09T07:17:46;47455.59;;;-144.02;56.10
29985;BME280;17387;42.690;23.328;2022-09-09T07:20:13;47475.91;;;-144.02;56.43
29985;BME280;17387;42.690;23.328;2022-09-09T07:22:40;47445.44;;;-144.02;55.71
29985;BME280;17387;42.690;23.328;2022-09-09T07:25:06;47412.94;;;-144.02;55.17
29985;BME280;17387;42.690;23.328;2022-09-09T07:27:32;47461.69;;;-144.02;54.68
29985;BME280;17387;42.690;23.328;2022-09-09T07:29:57;47421.06;;;-144.02;54.42
29985;BME280;17387;42.690;23.328;2022-09-09T07:32:23;47410.91;;;-144.02;53.03
29985;BME280;17387;42.690;23.328;2022-09-09T07:34:50;47461.69;;;-144.02;52.74
29985;BME280;17387;42.690;23.328;2022-09-09T07:37:16;47475.91;;;-144.02;53.59
29985;BME280;17387;42.690;23.328;2022-09-09T07:39:42;47457.63;;;-144.02;53.48
29985;BME280;17387;42.690;23.328;2022-09-09T07:42:07;47396.69;;;-144.02;52.38
29985;BME280;17387;42.690;23.328;2022-09-09T07:44:36;47437.31;;;-144.02;51.32
29985;BME280;17387;42.690;23.328;2022-09-09T07:47:04;47431.22;;;-144.02;51.47
29985;BME280;17387;42.690;23.328;2022-09-09T07:49:29;47410.91;;;-144.02;51.32
29985;BME280;17387;42.690;23.328;2022-09-09T07:51:55;47408.88;;;-144.02;50.60
29985;BME280;17387;42.690;23.328;2022-09-09T07:54:21;47406.84;;;-144.02;49.95
29985;BME280;17387;42.690;23.328;2022-09-09T07:56:49;47412.94;;;-144.02;49.78
29985;BME280;17387;42.690;23.328;2022-09-09T07:59:15;47386.53;;;-144.02;49.36
29985;BME280;17387;42.690;23.328;2022-09-09T08:01:45;47417.00;;;-144.02;49.37
29985;BME280;17387;42.690;23.328;2022-09-09T08:04:19;47396.69;;;-144.02;47.91
29985;BME280;17387;42.690;23.328;2022-09-09T08:06:54;47370.28;;;-144.02;47.11
29985;BME280;17387;42.690;23.328;2022-09-09T08:09:21;47392.63;;;-144.02;48.02
29985;BME280;17387;42.690;23.328;2022-09-09T08:11:50;47376.38;;;-144.02;47.17
29985;BME280;17387;42.690;23.328;2022-09-09T08:14:16;47386.53;;;-144.02;46.29
29985;BME280;17387;42.690;23.328;2022-09-09T08:16:47;47352.00;;;-144.02;45.60
29985;BME280;17387;42.690;23.328;2022-09-09T08:19:14;47388.56;;;-144.02;45.59
29985;BME280;17387;42.690;23.328;2022-09-09T08:21:43;47417.00;;;-144.02;45.18
29985;BME280;17387;42.690;23.328;2022-09-09T08:24:10;47370.28;;;-144.02;45.63
29985;BME280;17387;42.690;23.328;2022-09-09T08:26:39;47400.75;;;-144.02;46.71
29985;BME280;17387;42.690;23.328;2022-09-09T08:29:07;47372.31;;;-144.02;45.12
29985;BME280;17387;42.690;23.328;2022-09-09T08:31:39;47380.44;;;-144.02;44.23
29985;BME280;17387;42.690;23.328;2022-09-09T08:34:04;47370.28;;;-144.02;43.83
29985;BME280;17387;42.690;23.328;2022-09-09T08:36:33;47384.50;;;-144.02;43.35
29985;BME280;17387;42.690;23.328;2022-09-09T08:38:59;47376.38;;;-144.02;43.26
29985;BME280;17387;42.690;23.328;2022-09-09T08:52:42;47386.53;;;-144.02;42.67
29985;BME280;17387;42.690;23.328;2022-09-09T08:55:21;47323.56;;;-144.02;43.15
29985;BME280;17387;42.690;23.328;2022-09-09T08:57:50;47364.19;;;-144.02;43.08
29985;BME280;17387;42.690;23.328;2022-09-09T09:00:18;47356.06;;;-144.02;42.38
29985;BME280;17387;42.690;23.328;2022-09-09T09:08:30;47343.88;;;-144.02;40.70
29985;BME280;17387;42.690;23.328;2022-09-09T09:10:58;47380.44;;;-144.02;41.49
29985;BME280;17387;42.690;23.328;2022-09-09T09:13:40;47404.81;;;-144.02;42.36
29985;BME280;17387;42.690;23.328;2022-09-09T09:16:35;47396.69;;;-144.02;42.72
29985;BME280;17387;42.690;23.328;2022-09-09T09:19:04;47368.25;;;-144.02;41.53
29985;BME280;17387;42.690;23.328;2022-09-09T09:21:44;47384.50;;;-144.02;41.43
29985;BME280;17387;42.690;23.328;2022-09-09T09:24:27;47354.03;;;-144.02;41.07
29985;BME280;17387;42.690;23.328;2022-09-09T09:26:58;47352.00;;;-144.02;40.42
29985;BME280;17387;42.690;23.328;2022-09-09T09:29:26;47360.13;;;-144.02;39.64
29985;BME280;17387;42.690;23.328;2022-09-09T09:31:53;47364.19;;;-144.02;38.97
29985;BME280;17387;42.690;23.328;2022-09-09T09:34:20;47443.41;;;-144.02;38.42
29985;BME280;17387;42.690;23.328;2022-09-09T09:36:54;47347.94;;;-144.02;38.51
29985;BME280;17387;42.690;23.328;2022-09-09T09:41:49;47339.81;;;-144.02;39.58
29985;BME280;17387;42.690;23.328;2022-09-09T09:44:29;47329.66;;;-144.02;39.27
29985;BME280;17387;42.690;23.328;2022-09-09T09:47:21;47376.38;;;-144.02;41.34
29985;BME280;17387;42.690;23.328;2022-09-09T09:50:00;47331.69;;;-144.02;40.11
29985;BME280;17387;42.690;23.328;2022-09-09T09:52:30;47349.97;;;-144.02;39.26
29985;BME280;17387;42.690;23.328;2022-09-09T09:54:57;47380.44;;;-144.02;39.41
29985;BME280;17387;42.690;23.328;2022-09-09T09:57:26;47331.69;;;-144.02;39.12
29985;BME280;17387;42.690;23.328;2022-09-09T10:00:21;47356.06;;;-144.02;39.86
29985;BME280;17387;42.690;23.328;2022-09-09T10:02:48;47329.66;;;-144.02;40.05
29985;BME280;17387;42.690;23.328;2022-09-09T10:07:42;47372.31;;;-144.02;41.26
29985;BME280;17387;42.690;23.328;2022-09-09T10:10:20;47366.22;;;-144.02;40.41
29985;BME280;17387;42.690;23.328;2022-09-09T10:16:01;47362.16;;;-144.02;41.19
29985;BME280;17387;42.690;23.328;2022-09-09T10:32:40;47441.38;;;-144.02;41.65
29985;BME280;17387;42.690;23.328;2022-09-09T10:38:11;47335.75;;;-144.02;40.75
29985;BME280;17387;42.690;23.328;2022-09-09T10:57:48;47378.41;;;-144.02;42.60
29985;BME280;17387;42.690;23.328;2022-09-09T11:02:55;47410.91;;;-144.02;44.66
29985;BME280;17387;42.690;23.328;2022-09-09T11:05:26;47372.31;;;-144.02;44.46
29985;BME280;17387;42.690;23.328;2022-09-09T11:08:01;47408.88;;;-144.02;44.54
29985;BME280;17387;42.690;23.328;2022-09-09T11:13:20;47410.91;;;-144.02;44.91
29985;BME280;17387;42.690;23.328;2022-09-09T11:15:54;47349.97;;;-144.02;44.18
29985;BME280;17387;42.690;23.328;2022-09-09T11:18:25;47398.72;;;-144.02;43.81
29985;BME280;17387;42.690;23.328;2022-09-09T11:21:00;47390.59;;;-144.02;43.65
29985;BME280;17387;42.690;23.328;2022-09-09T11:23:40;47360.13;;;-144.02;42.76
29985;BME280;17387;42.690;23.328;2022-09-09T11:26:14;47372.31;;;-144.02;41.98
29985;BME280;17387;42.690;23.328;2022-09-09T11:34:33;47356.06;;;-144.02;42.53
29985;BME280;17387;42.690;23.328;2022-09-09T11:37:09;47356.06;;;-144.02;43.33
29985;BME280;17387;42.690;23.328;2022-09-09T11:42:22;47356.06;;;-144.02;44.18
29985;BME280;17387;42.690;23.328;2022-09-09T11:44:48;47360.13;;;-144.02;44.55
29985;BME280;17387;42.690;23.328;2022-09-09T11:47:21;47368.25;;;-144.02;43.98
29985;BME280;17387;42.690;23.328;2022-09-09T11:49:49;47347.94;;;-144.02;43.73
29985;BME280;17387;42.690;23.328;2022-09-09T11:52:35;47364.19;;;-144.02;43.78
29985;BME280;17387;42.690;23.328;2022-09-09T11:57:38;47368.25;;;-144.02;42.83
29985;BME280;17387;42.690;23.328;2022-09-09T12:00:05;47392.63;;;-144.02;42.19
29985;BME280;17387;42.690;23.328;2022-09-09T12:02:31;47390.59;;;-144.02;42.38
29985;BME280;17387;42.690;23.328;2022-09-09T12:05:08;47370.28;;;-144.02;42.65
29985;BME280;17387;42.690;23.328;2022-09-09T12:07:58;47319.50;;;-144.02;41.78
29985;BME280;17387;42.690;23.328;2022-09-09T12:10:31;47345.91;;;-144.02;41.44
29985;BME280;17387;42.690;23.328;2022-09-09T12:13:16;47347.94;;;-144.02;42.15
29985;BME280;17387;42.690;23.328;2022-09-09T12:15:56;47352.00;;;-144.02;41.23
29985;BME280;17387;42.690;23.328;2022-09-09T12:18:33;47333.72;;;-144.02;42.23
29985;BME280;17387;42.690;23.328;2022-09-09T12:21:14;47333.72;;;-144.02;42.41
29985;BME280;17387;42.690;23.328;2022-09-09T12:29:14;47356.06;;;-144.02;42.20
29985;BME280;17387;42.690;23.328;2022-09-09T12:36:55;47388.56;;;-144.02;41.73
29985;BME280;17387;42.690;23.328;2022-09-09T12:39:29;47325.59;;;-144.02;41.97
29985;BME280;17387;42.690;23.328;2022-09-09T12:41:56;47352.00;;;-144.02;42.70
29985;BME280;17387;42.690;23.328;2022-09-09T12:44:23;47356.06;;;-144.02;41.94
29985;BME280;17387;42.690;23.328;2022-09-09T12:46:49;47311.38;;;-144.02;42.80
29985;BME280;17387;42.690;23.328;2022-09-09T12:49:37;47347.94;;;-144.02;43.12
29985;BME280;17387;42.690;23.328;2022-09-09T12:52:07;47327.63;;;-144.02;42.73
29985;BME280;17387;42.690;23.328;2022-09-09T12:54:35;47339.81;;;-144.02;42.12
29985;BME280;17387;42.690;23.328;2022-09-09T12:57:02;47368.25;;;-144.02;41.72
29985;BME280;17387;42.690;23.328;2022-09-09T12:59:39;47309.34;;;-144.02;40.91
29985;BME280;17387;42.690;23.328;2022-09-09T13:02:31;47347.94;;;-144.02;40.54
29985;BME280;17387;42.690;23.328;2022-09-09T13:05:06;47349.97;;;-144.02;40.50
29985;BME280;17387;42.690;23.328;2022-09-09T13:07:37;47327.63;;;-144.02;40.54
29985;BME280;17387;42.690;23.328;2022-09-09T13:10:03;47331.69;;;-144.02;41.00
29985;BME280;17387;42.690;23.328;2022-09-09T13:12:29;47327.63;;;-144.02;40.91
29985;BME280;17387;42.690;23.328;2022-09-09T13:14:56;47347.94;;;-144.02;40.15
29985;BME280;17387;42.690;23.328;2022-09-09T13:17:24;47329.66;;;-144.02;42.39
29985;BME280;17387;42.690;23.328;2022-09-09T13:19:51;47384.50;;;-144.02;42.56
29985;BME280;17387;42.690;23.328;2022-09-09T13:22:44;47380.44;;;-144.02;41.54
29985;BME280;17387;42.690;23.328;2022-09-09T13:30:24;47313.41;;;-144.02;41.01
29985;BME280;17387;42.690;23.328;2022-09-09T13:35:35;47347.94;;;-144.02;42.63
29985;BME280;17387;42.690;23.328;2022-09-09T13:38:14;47319.50;;;-144.02;43.00
29985;BME280;17387;42.690;23.328;2022-09-09T13:40:39;47325.59;;;-144.02;44.09
29985;BME280;17387;42.690;23.328;2022-09-09T13:43:05;47370.28;;;-144.02;43.91
29985;BME280;17387;42.690;23.328;2022-09-09T13:45:40;47315.44;;;-144.02;44.24
29985;BME280;17387;42.690;23.328;2022-09-09T13:48:09;47347.94;;;-144.02;43.94
29985;BME280;17387;42.690;23.328;2022-09-09T13:50:35;47380.44;;;-144.02;44.26
29985;BME280;17387;42.690;23.328;2022-09-09T13:53:01;47356.06;;;-144.02;43.92
29985;BME280;17387;42.690;23.328;2022-09-09T13:55:28;47341.84;;;-144.02;43.11
29985;BME280;17387;42.690;23.328;2022-09-09T14:00:22;47374.34;;;-144.02;42.51
29985;BME280;17387;42.690;23.328;2022-09-09T14:02:48;47311.38;;;-144.02;40.61
29985;BME280;17387;42.690;23.328;2022-09-09T14:05:14;47323.56;;;-144.02;38.16
29985;BME280;17387;42.690;23.328;2022-09-09T14:07:41;47335.75;;;-144.02;38.44
29985;BME280;17387;42.690;23.328;2022-09-09T14:10:07;47303.25;;;-144.02;37.10
29985;BME280;17387;42.690;23.328;2022-09-09T14:12:33;47270.75;;;-144.02;37.87
29985;BME280;17387;42.690;23.328;2022-09-09T14:14:58;47398.72;;;-144.02;39.08
29985;BME280;17387;42.690;23.328;2022-09-09T14:17:27;47303.25;;;-144.02;39.59
29985;BME280;17387;42.690;23.328;2022-09-09T14:19:55;47315.44;;;-144.02;39.71
29985;BME280;17387;42.690;23.328;2022-09-09T14:22:21;47327.63;;;-144.02;40.05
29985;BME280;17387;42.690;23.328;2022-09-09T14:24:47;47315.44;;;-144.02;nan
29985;BME280;17387;42.690;23.328;2022-09-09T14:27:12;47343.88;;;-144.02;41.50
29985;BME280;17387;42.690;23.328;2022-09-09T14:29:38;47333.72;;;-144.02;41.75
29985;BME280;17387;42.690;23.328;2022-09-09T14:32:03;47400.75;;;-144.02;41.88
29985;BME280;17387;42.690;23.328;2022-09-09T14:34:29;47347.94;;;-144.02;41.51
29985;BME280;17387;42.690;23.328;2022-09-09T14:36:54;47358.09;;;-144.02;42.37
29985;BME280;17387;42.690;23.328;2022-09-09T14:39:20;47368.25;;;-144.02;43.09
29985;BME280;17387;42.690;23.328;2022-09-09T14:41:45;47372.31;;;-144.02;43.52
29985;BME280;17387;42.690;23.328;2022-09-09T14:44:11;47356.06;;;-144.02;43.70
29985;BME280;17387;42.690;23.328;2022-09-09T14:46:36;47394.66;;;-144.02;43.35
29985;BME280;17387;42.690;23.328;2022-09-09T14:49:02;47376.38;;;-144.02;43.73
29985;BME280;17387;42.690;23.328;2022-09-09T14:51:27;47449.50;;;-144.02;44.43
29985;BME280;17387;42.690;23.328;2022-09-09T14:53:58;47376.38;;;-144.02;44.79
29985;BME280;17387;42.690;23.328;2022-09-09T14:56:28;47339.81;;;-144.02;44.81
29985;BME280;17387;42.690;23.328;2022-09-09T14:58:55;47388.56;;;-144.02;44.35